sensor_id;sensor_type;location;lat;lon;timestamp;temperature;humidity
33927;DHT22;20485;50.992;5.550;2024-01-27T00:00:11;0.20;99.90
33927;DHT22;20485;50.992;5.550;2024-01-27T00:02:43;-2.80;99.90
33927;DHT22;20485;50.992;5.550;2024-01-27T00:05:20;0.20;99.90
33927;DHT22;20485;50.992;5.550;2024-01-27T00:07:47;0.20;99.90
33927;DHT22;20485;50.992;5.550;2024-01-27T00:10:24;0.10;99.90
33927;DHT22;20485;50.992;5.550;2024-01-27T00:13:02;0.30;99.90
33927;DHT22;20485;50.992;5.550;2024-01-27T00:15:29;0.20;99.90
33927;DHT22;20485;50.992;5.550;2024-01-27T00:18:18;0.20;99.90
33927;DHT22;20485;50.992;5.550;2024-01-27T00:20:47;0.10;99.90
33927;DHT22;20485;50.992;5.550;2024-01-27T00:23:23;0.00;99.90
33927;DHT22;20485;50.992;5.550;2024-01-27T00:26:00;0.00;99.90
33927;DHT22;20485;50.992;5.550;2024-01-27T00:28:27;0.00;99.90
33927;DHT22;20485;50.992;5.550;2024-01-27T00:30:56;0.00;99.90
33927;DHT22;20485;50.992;5.550;2024-01-27T00:33:32;0.00;99.90
33927;DHT22;20485;50.992;5.550;2024-01-27T00:36:17;0.00;99.90
33927;DHT22;20485;50.992;5.550;2024-01-27T00:38:45;0.00;99.90
33927;DHT22;20485;50.992;5.550;2024-01-27T00:41:21;0.00;99.90
33927;DHT22;20485;50.992;5.550;2024-01-27T00:43:48;0.00;99.90
33927;DHT22;20485;50.992;5.550;2024-01-27T00:46:14;-0.10;99.90
33927;DHT22;20485;50.992;5.550;2024-01-27T00:48:44;-0.10;99.90
33927;DHT22;20485;50.992;5.550;2024-01-27T00:51:14;-0.10;99.90
33927;DHT22;20485;50.992;5.550;2024-01-27T00:53:47;-0.10;99.90
33927;DHT22;20485;50.992;5.550;2024-01-27T00:56:16;-0.60;99.90
33927;DHT22;20485;50.992;5.550;2024-01-27T00:58:54;-0.10;99.90
33927;DHT22;20485;50.992;5.550;2024-01-27T01:01:22;-0.20;99.90
33927;DHT22;20485;50.992;5.550;2024-01-27T01:03:50;-0.20;99.90
33927;DHT22;20485;50.992;5.550;2024-01-27T01:06:27;-0.10;99.90
33927;DHT22;20485;50.992;5.550;2024-01-27T01:08:57;-0.20;99.90
33927;DHT22;20485;50.992;5.550;2024-01-27T01:11:23;-0.20;99.90
33927;DHT22;20485;50.992;5.550;2024-01-27T01:13:57;-0.20;99.90
33927;DHT22;20485;50.992;5.550;2024-01-27T01:16:26;-0.30;99.90
33927;DHT22;20485;50.992;5.550;2024-01-27T01:19:13;-0.30;99.90
33927;DHT22;20485;50.992;5.550;2024-01-27T01:21:43;-0.30;99.90
33927;DHT22;20485;50.992;5.550;2024-01-27T01:24:13;-0.30;99.90
33927;DHT22;20485;50.992;5.550;2024-01-27T01:26:40;-0.20;99.90
33927;DHT22;20485;50.992;5.550;2024-01-27T01:29:08;-0.30;99.90
33927;DHT22;20485;50.992;5.550;2024-01-27T01:32:07;-0.30;99.90
33927;DHT22;20485;50.992;5.550;2024-01-27T01:34:50;-0.30;99.90
33927;DHT22;20485;50.992;5.550;2024-01-27T01:37:27;-0.30;99.90
33927;DHT22;20485;50.992;5.550;2024-01-27T01:39:56;-0.40;99.90
33927;DHT22;20485;50.992;5.550;2024-01-27T01:42:29;-0.40;99.90
33927;DHT22;20485;50.992;5.550;2024-01-27T01:45:10;-0.40;99.90
33927;DHT22;20485;50.992;5.550;2024-01-27T01:47:48;-0.40;99.90
33927;DHT22;20485;50.992;5.550;2024-01-27T01:50:22;-0.50;99.90
33927;DHT22;20485;50.992;5.550;2024-01-27T01:52:59;-0.40;99.90
33927;DHT22;20485;50.992;5.550;2024-01-27T01:55:30;-0.50;99.90
33927;DHT22;20485;50.992;5.550;2024-01-27T01:58:00;-0.50;99.90
33927;DHT22;20485;50.992;5.550;2024-01-27T02:00:40;-0.60;99.90
33927;DHT22;20485;50.992;5.550;2024-01-27T02:03:11;-0.60;99.90
33927;DHT22;20485;50.992;5.550;2024-01-27T02:08:51;-0.60;99.90
33927;DHT22;20485;50.992;5.550;2024-01-27T02:11:23;-0.60;99.90
33927;DHT22;20485;50.992;5.550;2024-01-27T02:13:58;-0.70;99.90
33927;DHT22;20485;50.992;5.550;2024-01-27T02:16:29;-0.90;99.90
33927;DHT22;20485;50.992;5.550;2024-01-27T02:19:04;-0.60;99.90
33927;DHT22;20485;50.992;5.550;2024-01-27T02:21:43;-0.70;99.90
33927;DHT22;20485;50.992;5.550;2024-01-27T02:24:15;-0.80;99.90
33927;DHT22;20485;50.992;5.550;2024-01-27T02:26:58;-0.70;99.90
33927;DHT22;20485;50.992;5.550;2024-01-27T02:29:28;-0.80;99.90
33927;DHT22;20485;50.992;5.550;2024-01-27T02:32:10;-0.80;99.90
33927;DHT22;20485;50.992;5.550;2024-01-27T02:34:42;-0.70;99.90
33927;DHT22;20485;50.992;5.550;2024-01-27T02:37:10;-0.70;99.90
33927;DHT22;20485;50.992;5.550;2024-01-27T02:39:40;-0.70;99.90
33927;DHT22;20485;50.992;5.550;2024-01-27T02:42:12;-0.70;99.90
33927;DHT22;20485;50.992;5.550;2024-01-27T02:44:44;-0.80;99.90
33927;DHT22;20485;50.992;5.550;2024-01-27T02:47:23;-0.70;99.90
33927;DHT22;20485;50.992;5.550;2024-01-27T02:50:02;-0.70;99.90
33927;DHT22;20485;50.992;5.550;2024-01-27T02:52:39;-0.70;99.90
33927;DHT22;20485;50.992;5.550;2024-01-27T02:55:06;-0.80;99.90
33927;DHT22;20485;50.992;5.550;2024-01-27T02:57:42;-3.90;99.90
33927;DHT22;20485;50.992;5.550;2024-01-27T03:00:17;-1.80;99.90
33927;DHT22;20485;50.992;5.550;2024-01-27T03:02:59;-0.90;99.90
33927;DHT22;20485;50.992;5.550;2024-01-27T03:05:45;-2.00;99.90
33927;DHT22;20485;50.992;5.550;2024-01-27T03:08:15;-1.00;99.90
33927;DHT22;20485;50.992;5.550;2024-01-27T03:11:12;-1.00;99.90
33927;DHT22;20485;50.992;5.550;2024-01-27T03:13:38;-1.00;99.90
33927;DHT22;20485;50.992;5.550;2024-01-27T03:16:18;-1.00;99.90
33927;DHT22;20485;50.992;5.550;2024-01-27T03:18:45;-1.00;99.90
33927;DHT22;20485;50.992;5.550;2024-01-27T03:21:17;-1.10;99.90
33927;DHT22;20485;50.992;5.550;2024-01-27T03:23:52;-1.00;99.90
33927;DHT22;20485;50.992;5.550;2024-01-27T03:26:27;-1.10;99.90
33927;DHT22;20485;50.992;5.550;2024-01-27T03:29:03;-1.10;99.90
33927;DHT22;20485;50.992;5.550;2024-01-27T03:31:33;-1.10;99.90
33927;DHT22;20485;50.992;5.550;2024-01-27T03:34:03;-1.10;99.90
33927;DHT22;20485;50.992;5.550;2024-01-27T03:36:50;-1.00;99.90
33927;DHT22;20485;50.992;5.550;2024-01-27T03:39:21;-1.20;99.90
33927;DHT22;20485;50.992;5.550;2024-01-27T03:41:52;-1.20;99.90
33927;DHT22;20485;50.992;5.550;2024-01-27T03:44:28;-1.20;99.90
33927;DHT22;20485;50.992;5.550;2024-01-27T03:47:01;1.50;99.90
33927;DHT22;20485;50.992;5.550;2024-01-27T03:52:32;-1.30;99.90
33927;DHT22;20485;50.992;5.550;2024-01-27T03:55:02;-1.40;99.90
33927;DHT22;20485;50.992;5.550;2024-01-27T03:57:37;-1.30;99.90
33927;DHT22;20485;50.992;5.550;2024-01-27T04:00:08;-1.30;99.90
33927;DHT22;20485;50.992;5.550;2024-01-27T04:02:43;-1.20;99.90
33927;DHT22;20485;50.992;5.550;2024-01-27T04:05:09;-1.30;99.90
33927;DHT22;20485;50.992;5.550;2024-01-27T04:07:39;-1.30;99.90
33927;DHT22;20485;50.992;5.550;2024-01-27T04:10:14;-1.30;99.90
33927;DHT22;20485;50.992;5.550;2024-01-27T04:12:52;-1.30;99.90
33927;DHT22;20485;50.992;5.550;2024-01-27T04:15:22;-1.30;99.90
33927;DHT22;20485;50.992;5.550;2024-01-27T04:18:13;-1.40;99.90
33927;DHT22;20485;50.992;5.550;2024-01-27T04:21:00;-1.40;99.90
33927;DHT22;20485;50.992;5.550;2024-01-27T04:23:42;-1.40;99.90
33927;DHT22;20485;50.992;5.550;2024-01-27T04:26:12;-1.40;99.90
33927;DHT22;20485;50.992;5.550;2024-01-27T04:29:15;-1.30;99.90
33927;DHT22;20485;50.992;5.550;2024-01-27T04:31:49;-1.30;99.90
33927;DHT22;20485;50.992;5.550;2024-01-27T04:34:25;-1.40;99.90
33927;DHT22;20485;50.992;5.550;2024-01-27T04:37:00;-1.40;99.90
33927;DHT22;20485;50.992;5.550;2024-01-27T04:39:31;-1.40;99.90
33927;DHT22;20485;50.992;5.550;2024-01-27T04:41:57;-1.50;99.90
33927;DHT22;20485;50.992;5.550;2024-01-27T04:44:23;-1.50;99.90
33927;DHT22;20485;50.992;5.550;2024-01-27T04:47:14;-1.50;99.90
33927;DHT22;20485;50.992;5.550;2024-01-27T04:49:47;-1.50;99.90
33927;DHT22;20485;50.992;5.550;2024-01-27T04:55:01;-1.60;99.90
33927;DHT22;20485;50.992;5.550;2024-01-27T04:57:35;-1.70;99.90
33927;DHT22;20485;50.992;5.550;2024-01-27T05:00:04;-1.60;99.90
33927;DHT22;20485;50.992;5.550;2024-01-27T05:05:29;-1.60;99.90
33927;DHT22;20485;50.992;5.550;2024-01-27T05:08:01;-1.50;99.90
33927;DHT22;20485;50.992;5.550;2024-01-27T05:10:40;-1.50;99.90
33927;DHT22;20485;50.992;5.550;2024-01-27T05:13:11;-1.50;99.90
33927;DHT22;20485;50.992;5.550;2024-01-27T05:15:41;-1.50;99.90
33927;DHT22;20485;50.992;5.550;2024-01-27T05:18:19;-1.50;99.90
33927;DHT22;20485;50.992;5.550;2024-01-27T05:21:07;0.70;99.90
33927;DHT22;20485;50.992;5.550;2024-01-27T05:26:50;-1.60;99.90
33927;DHT22;20485;50.992;5.550;2024-01-27T05:29:20;-1.60;99.90
33927;DHT22;20485;50.992;5.550;2024-01-27T05:32:02;-1.60;99.90
33927;DHT22;20485;50.992;5.550;2024-01-27T05:34:28;-1.60;99.90
33927;DHT22;20485;50.992;5.550;2024-01-27T05:36:58;-1.50;99.90
33927;DHT22;20485;50.992;5.550;2024-01-27T05:39:32;-1.60;99.90
33927;DHT22;20485;50.992;5.550;2024-01-27T05:42:09;-1.60;99.90
33927;DHT22;20485;50.992;5.550;2024-01-27T05:44:34;-1.60;99.90
33927;DHT22;20485;50.992;5.550;2024-01-27T05:47:10;-1.70;99.90
33927;DHT22;20485;50.992;5.550;2024-01-27T05:49:38;-1.60;99.90
33927;DHT22;20485;50.992;5.550;2024-01-27T05:52:06;-1.70;99.90
33927;DHT22;20485;50.992;5.550;2024-01-27T05:54:41;-1.60;99.90
33927;DHT22;20485;50.992;5.550;2024-01-27T05:57:08;-1.70;99.90
33927;DHT22;20485;50.992;5.550;2024-01-27T05:59:39;-1.70;99.90
33927;DHT22;20485;50.992;5.550;2024-01-27T06:02:06;-1.70;99.90
33927;DHT22;20485;50.992;5.550;2024-01-27T06:04:34;-1.70;99.90
33927;DHT22;20485;50.992;5.550;2024-01-27T06:07:06;-1.80;99.90
33927;DHT22;20485;50.992;5.550;2024-01-27T06:09:33;-1.60;99.90
33927;DHT22;20485;50.992;5.550;2024-01-27T06:12:08;-1.80;99.90
33927;DHT22;20485;50.992;5.550;2024-01-27T06:14:47;-1.80;99.90
33927;DHT22;20485;50.992;5.550;2024-01-27T06:17:14;-1.80;99.90
33927;DHT22;20485;50.992;5.550;2024-01-27T06:22:24;-1.90;99.90
33927;DHT22;20485;50.992;5.550;2024-01-27T06:24:52;-1.90;99.90
33927;DHT22;20485;50.992;5.550;2024-01-27T06:27:22;-1.90;99.90
33927;DHT22;20485;50.992;5.550;2024-01-27T06:29:48;-1.90;99.90
33927;DHT22;20485;50.992;5.550;2024-01-27T06:32:55;-2.00;99.90
33927;DHT22;20485;50.992;5.550;2024-01-27T06:35:24;-1.90;99.90
33927;DHT22;20485;50.992;5.550;2024-01-27T06:37:59;-1.90;99.90
33927;DHT22;20485;50.992;5.550;2024-01-27T06:40:33;-1.90;99.90
33927;DHT22;20485;50.992;5.550;2024-01-27T06:43:00;-1.90;99.90
33927;DHT22;20485;50.992;5.550;2024-01-27T06:45:28;-1.90;99.90
33927;DHT22;20485;50.992;5.550;2024-01-27T06:47:57;-2.00;99.90
33927;DHT22;20485;50.992;5.550;2024-01-27T06:50:23;-2.00;99.90
33927;DHT22;20485;50.992;5.550;2024-01-27T06:53:01;-2.00;99.90
33927;DHT22;20485;50.992;5.550;2024-01-27T06:55:47;-2.00;99.90
33927;DHT22;20485;50.992;5.550;2024-01-27T06:58:17;-2.00;99.90
33927;DHT22;20485;50.992;5.550;2024-01-27T07:00:42;-2.00;99.90
33927;DHT22;20485;50.992;5.550;2024-01-27T07:03:08;-1.40;99.90
33927;DHT22;20485;50.992;5.550;2024-01-27T07:05:43;-2.00;99.90
33927;DHT22;20485;50.992;5.550;2024-01-27T07:08:22;-2.00;99.90
33927;DHT22;20485;50.992;5.550;2024-01-27T07:10:57;-2.10;99.90
33927;DHT22;20485;50.992;5.550;2024-01-27T07:13:23;-2.00;99.90
33927;DHT22;20485;50.992;5.550;2024-01-27T07:15:51;-2.00;99.90
33927;DHT22;20485;50.992;5.550;2024-01-27T07:18:17;-2.00;99.90
33927;DHT22;20485;50.992;5.550;2024-01-27T07:20:48;-2.00;99.90
33927;DHT22;20485;50.992;5.550;2024-01-27T07:23:20;-1.80;99.90
33927;DHT22;20485;50.992;5.550;2024-01-27T07:25:48;-2.00;99.90
33927;DHT22;20485;50.992;5.550;2024-01-27T07:28:22;-2.70;99.90
33927;DHT22;20485;50.992;5.550;2024-01-27T07:31:19;-1.90;99.90
33927;DHT22;20485;50.992;5.550;2024-01-27T07:36:37;-1.90;99.90
33927;DHT22;20485;50.992;5.550;2024-01-27T07:39:04;-1.60;99.90
33927;DHT22;20485;50.992;5.550;2024-01-27T07:41:47;-1.80;99.90
33927;DHT22;20485;50.992;5.550;2024-01-27T07:44:22;-1.80;99.90
33927;DHT22;20485;50.992;5.550;2024-01-27T07:46:57;0.50;99.90
33927;DHT22;20485;50.992;5.550;2024-01-27T07:52:38;-1.80;99.90
33927;DHT22;20485;50.992;5.550;2024-01-27T07:55:14;-1.80;99.90
33927;DHT22;20485;50.992;5.550;2024-01-27T07:57:44;-1.70;99.90
33927;DHT22;20485;50.992;5.550;2024-01-27T08:00:17;-1.70;99.90
33927;DHT22;20485;50.992;5.550;2024-01-27T08:05:37;-1.60;99.90
33927;DHT22;20485;50.992;5.550;2024-01-27T08:10:50;-1.60;99.90
33927;DHT22;20485;50.992;5.550;2024-01-27T08:13:36;-1.50;99.90
33927;DHT22;20485;50.992;5.550;2024-01-27T08:16:16;-1.50;99.90
33927;DHT22;20485;50.992;5.550;2024-01-27T08:18:43;-0.10;99.90
33927;DHT22;20485;50.992;5.550;2024-01-27T08:21:34;-1.60;99.90
33927;DHT22;20485;50.992;5.550;2024-01-27T08:24:08;-1.40;99.90
33927;DHT22;20485;50.992;5.550;2024-01-27T08:26:35;-1.40;99.90
33927;DHT22;20485;50.992;5.550;2024-01-27T08:29:01;-0.20;99.90
33927;DHT22;20485;50.992;5.550;2024-01-27T08:31:38;-1.40;99.90
33927;DHT22;20485;50.992;5.550;2024-01-27T08:34:04;-1.30;99.90
33927;DHT22;20485;50.992;5.550;2024-01-27T08:36:37;-1.30;99.90
33927;DHT22;20485;50.992;5.550;2024-01-27T08:39:22;-1.30;99.90
33927;DHT22;20485;50.992;5.550;2024-01-27T08:44:51;-1.30;99.90
33927;DHT22;20485;50.992;5.550;2024-01-27T08:47:47;-1.20;99.90
33927;DHT22;20485;50.992;5.550;2024-01-27T08:50:23;-1.30;99.90
33927;DHT22;20485;50.992;5.550;2024-01-27T08:52:52;-1.30;99.90
33927;DHT22;20485;50.992;5.550;2024-01-27T08:55:20;-1.10;99.90
33927;DHT22;20485;50.992;5.550;2024-01-27T08:58:08;-1.10;99.90
33927;DHT22;20485;50.992;5.550;2024-01-27T09:07:21;-0.90;99.90
33927;DHT22;20485;50.992;5.550;2024-01-27T09:10:10;0.60;99.90
33927;DHT22;20485;50.992;5.550;2024-01-27T09:12:55;-0.80;99.90
33927;DHT22;20485;50.992;5.550;2024-01-27T09:15:36;-0.80;99.90
33927;DHT22;20485;50.992;5.550;2024-01-27T09:18:05;-0.70;99.90
33927;DHT22;20485;50.992;5.550;2024-01-27T09:20:31;-0.70;99.90
33927;DHT22;20485;50.992;5.550;2024-01-27T09:23:36;-0.60;99.90
33927;DHT22;20485;50.992;5.550;2024-01-27T09:26:11;-0.50;99.90
33927;DHT22;20485;50.992;5.550;2024-01-27T09:29:02;-0.40;99.90
33927;DHT22;20485;50.992;5.550;2024-01-27T09:31:28;-0.40;99.90
33927;DHT22;20485;50.992;5.550;2024-01-27T09:33:54;-0.30;99.90
33927;DHT22;20485;50.992;5.550;2024-01-27T09:36:20;-0.10;99.90
33927;DHT22;20485;50.992;5.550;2024-01-27T09:38:46;0.00;99.90
33927;DHT22;20485;50.992;5.550;2024-01-27T09:41:15;0.00;99.90
33927;DHT22;20485;50.992;5.550;2024-01-27T09:43:45;0.00;99.90
33927;DHT22;20485;50.992;5.550;2024-01-27T09:46:12;0.10;99.90
33927;DHT22;20485;50.992;5.550;2024-01-27T09:48:38;0.20;99.90
33927;DHT22;20485;50.992;5.550;2024-01-27T09:51:05;0.30;99.90
33927;DHT22;20485;50.992;5.550;2024-01-27T09:53:30;0.40;99.90
33927;DHT22;20485;50.992;5.550;2024-01-27T09:56:00;0.40;99.90
33927;DHT22;20485;50.992;5.550;2024-01-27T09:58:28;0.50;99.90
33927;DHT22;20485;50.992;5.550;2024-01-27T10:00:56;0.60;99.90
33927;DHT22;20485;50.992;5.550;2024-01-27T10:03:26;0.70;99.90
33927;DHT22;20485;50.992;5.550;2024-01-27T10:11:50;0.80;99.90
33927;DHT22;20485;50.992;5.550;2024-01-27T10:14:16;0.90;99.90
33927;DHT22;20485;50.992;5.550;2024-01-27T10:16:45;1.00;99.90
33927;DHT22;20485;50.992;5.550;2024-01-27T10:19:15;1.00;99.90
33927;DHT22;20485;50.992;5.550;2024-01-27T10:21:47;1.10;99.90
33927;DHT22;20485;50.992;5.550;2024-01-27T10:24:13;1.20;99.90
33927;DHT22;20485;50.992;5.550;2024-01-27T10:26:39;1.20;99.90
33927;DHT22;20485;50.992;5.550;2024-01-27T10:29:05;1.20;99.90
33927;DHT22;20485;50.992;5.550;2024-01-27T10:31:35;1.30;99.90
33927;DHT22;20485;50.992;5.550;2024-01-27T10:34:02;1.30;99.90
33927;DHT22;20485;50.992;5.550;2024-01-27T10:36:42;1.50;99.90
33927;DHT22;20485;50.992;5.550;2024-01-27T10:39:21;1.60;99.90
33927;DHT22;20485;50.992;5.550;2024-01-27T10:41:48;1.60;99.90
33927;DHT22;20485;50.992;5.550;2024-01-27T10:44:16;1.70;99.90
33927;DHT22;20485;50.992;5.550;2024-01-27T10:46:46;1.70;99.90
33927;DHT22;20485;50.992;5.550;2024-01-27T10:49:14;1.80;99.90
33927;DHT22;20485;50.992;5.550;2024-01-27T10:51:45;1.80;99.90
33927;DHT22;20485;50.992;5.550;2024-01-27T10:54:15;1.90;99.90
33927;DHT22;20485;50.992;5.550;2024-01-27T10:56:43;2.00;99.90
33927;DHT22;20485;50.992;5.550;2024-01-27T10:59:12;2.00;99.90
33927;DHT22;20485;50.992;5.550;2024-01-27T11:01:39;2.00;99.90
33927;DHT22;20485;50.992;5.550;2024-01-27T11:04:11;1.90;99.90
33927;DHT22;20485;50.992;5.550;2024-01-27T11:06:49;2.20;99.90
33927;DHT22;20485;50.992;5.550;2024-01-27T11:09:23;4.00;99.90
33927;DHT22;20485;50.992;5.550;2024-01-27T11:11:51;3.80;99.90
33927;DHT22;20485;50.992;5.550;2024-01-27T11:14:17;2.50;99.90
33927;DHT22;20485;50.992;5.550;2024-01-27T11:16:54;2.50;99.90
33927;DHT22;20485;50.992;5.550;2024-01-27T11:19:21;2.60;99.90
33927;DHT22;20485;50.992;5.550;2024-01-27T11:22:04;2.70;99.90
33927;DHT22;20485;50.992;5.550;2024-01-27T11:24:43;2.70;99.90
33927;DHT22;20485;50.992;5.550;2024-01-27T11:27:15;2.80;99.90
33927;DHT22;20485;50.992;5.550;2024-01-27T11:29:48;2.90;99.90
33927;DHT22;20485;50.992;5.550;2024-01-27T11:32:21;3.10;99.90
33927;DHT22;20485;50.992;5.550;2024-01-27T11:34:48;3.00;99.90
33927;DHT22;20485;50.992;5.550;2024-01-27T11:37:30;3.20;99.90
33927;DHT22;20485;50.992;5.550;2024-01-27T11:40:10;3.20;99.90
33927;DHT22;20485;50.992;5.550;2024-01-27T11:45:10;3.50;99.90
33927;DHT22;20485;50.992;5.550;2024-01-27T11:47:45;3.50;99.90
33927;DHT22;20485;50.992;5.550;2024-01-27T11:50:31;3.60;99.90
33927;DHT22;20485;50.992;5.550;2024-01-27T11:53:08;3.60;99.90
33927;DHT22;20485;50.992;5.550;2024-01-27T11:55:40;3.70;99.90
33927;DHT22;20485;50.992;5.550;2024-01-27T11:58:21;4.00;99.90
33927;DHT22;20485;50.992;5.550;2024-01-27T12:00:54;3.90;99.90
33927;DHT22;20485;50.992;5.550;2024-01-27T12:03:33;4.10;99.90
33927;DHT22;20485;50.992;5.550;2024-01-27T12:06:05;3.90;99.90
33927;DHT22;20485;50.992;5.550;2024-01-27T12:08:54;4.90;99.90
33927;DHT22;20485;50.992;5.550;2024-01-27T12:11:32;3.60;99.90
33927;DHT22;20485;50.992;5.550;2024-01-27T12:14:05;4.00;99.90
33927;DHT22;20485;50.992;5.550;2024-01-27T12:16:45;4.00;99.90
33927;DHT22;20485;50.992;5.550;2024-01-27T12:19:17;2.60;99.90
33927;DHT22;20485;50.992;5.550;2024-01-27T12:21:56;4.20;99.90
33927;DHT22;20485;50.992;5.550;2024-01-27T12:24:29;4.10;99.90
33927;DHT22;20485;50.992;5.550;2024-01-27T12:27:06;5.60;99.90
33927;DHT22;20485;50.992;5.550;2024-01-27T12:29:41;4.40;99.90
33927;DHT22;20485;50.992;5.550;2024-01-27T12:32:08;4.50;99.90
33927;DHT22;20485;50.992;5.550;2024-01-27T12:34:45;4.40;99.90
33927;DHT22;20485;50.992;5.550;2024-01-27T12:37:38;4.50;99.90
33927;DHT22;20485;50.992;5.550;2024-01-27T12:40:25;4.70;99.90
33927;DHT22;20485;50.992;5.550;2024-01-27T12:42:58;6.90;99.90
33927;DHT22;20485;50.992;5.550;2024-01-27T12:45:28;4.70;99.90
33927;DHT22;20485;50.992;5.550;2024-01-27T12:48:04;4.70;99.90
33927;DHT22;20485;50.992;5.550;2024-01-27T12:50:44;4.70;99.90
33927;DHT22;20485;50.992;5.550;2024-01-27T12:53:16;4.90;99.90
33927;DHT22;20485;50.992;5.550;2024-01-27T12:56:03;4.90;99.90
33927;DHT22;20485;50.992;5.550;2024-01-27T13:01:25;7.40;99.90
33927;DHT22;20485;50.992;5.550;2024-01-27T13:03:53;5.00;99.90
33927;DHT22;20485;50.992;5.550;2024-01-27T13:06:27;5.00;99.90
33927;DHT22;20485;50.992;5.550;2024-01-27T13:09:12;5.10;99.90
33927;DHT22;20485;50.992;5.550;2024-01-27T13:11:42;5.20;99.90
33927;DHT22;20485;50.992;5.550;2024-01-27T13:14:14;5.30;99.90
33927;DHT22;20485;50.992;5.550;2024-01-27T13:19:37;5.30;99.90
33927;DHT22;20485;50.992;5.550;2024-01-27T13:22:04;5.40;99.90
33927;DHT22;20485;50.992;5.550;2024-01-27T13:24:32;5.40;99.90
33927;DHT22;20485;50.992;5.550;2024-01-27T13:27:01;5.30;99.90
33927;DHT22;20485;50.992;5.550;2024-01-27T13:29:27;5.30;99.90
33927;DHT22;20485;50.992;5.550;2024-01-27T13:31:52;5.40;99.90
33927;DHT22;20485;50.992;5.550;2024-01-27T13:34:18;5.40;99.90
33927;DHT22;20485;50.992;5.550;2024-01-27T13:36:44;5.40;99.90
33927;DHT22;20485;50.992;5.550;2024-01-27T13:39:10;5.40;99.90
33927;DHT22;20485;50.992;5.550;2024-01-27T13:41:35;5.40;99.90
33927;DHT22;20485;50.992;5.550;2024-01-27T13:44:02;5.40;99.90
33927;DHT22;20485;50.992;5.550;2024-01-27T13:46:28;5.40;99.90
33927;DHT22;20485;50.992;5.550;2024-01-27T13:48:54;5.40;99.90
33927;DHT22;20485;50.992;5.550;2024-01-27T13:51:20;5.40;99.90
33927;DHT22;20485;50.992;5.550;2024-01-27T13:54:11;5.40;99.90
33927;DHT22;20485;50.992;5.550;2024-01-27T13:56:43;5.50;99.90
33927;DHT22;20485;50.992;5.550;2024-01-27T13:59:28;5.00;99.90
33927;DHT22;20485;50.992;5.550;2024-01-27T14:01:56;5.90;99.90
33927;DHT22;20485;50.992;5.550;2024-01-27T14:04:26;5.50;99.90
33927;DHT22;20485;50.992;5.550;2024-01-27T14:07:08;5.50;99.90
33927;DHT22;20485;50.992;5.550;2024-01-27T14:09:47;5.50;99.90
33927;DHT22;20485;50.992;5.550;2024-01-27T14:12:31;5.40;99.90
33927;DHT22;20485;50.992;5.550;2024-01-27T14:15:11;5.50;99.90
33927;DHT22;20485;50.992;5.550;2024-01-27T14:17:43;5.80;99.90
33927;DHT22;20485;50.992;5.550;2024-01-27T14:20:12;5.40;99.90
33927;DHT22;20485;50.992;5.550;2024-01-27T14:22:47;5.50;99.90
33927;DHT22;20485;50.992;5.550;2024-01-27T14:25:20;5.50;99.90
33927;DHT22;20485;50.992;5.550;2024-01-27T14:27:51;5.30;99.90
33927;DHT22;20485;50.992;5.550;2024-01-27T14:30:24;5.50;99.90
33927;DHT22;20485;50.992;5.550;2024-01-27T14:33:21;5.50;99.90
33927;DHT22;20485;50.992;5.550;2024-01-27T14:35:50;5.40;99.90
33927;DHT22;20485;50.992;5.550;2024-01-27T14:38:20;5.40;99.90
33927;DHT22;20485;50.992;5.550;2024-01-27T14:40:50;8.30;99.90
33927;DHT22;20485;50.992;5.550;2024-01-27T14:43:24;5.30;99.90
33927;DHT22;20485;50.992;5.550;2024-01-27T14:51:21;5.30;99.90
33927;DHT22;20485;50.992;5.550;2024-01-27T14:53:54;5.30;99.90
33927;DHT22;20485;50.992;5.550;2024-01-27T14:56:33;5.30;99.90
33927;DHT22;20485;50.992;5.550;2024-01-27T14:59:03;5.20;99.90
33927;DHT22;20485;50.992;5.550;2024-01-27T15:01:33;5.70;99.90
33927;DHT22;20485;50.992;5.550;2024-01-27T15:04:02;5.20;99.90
33927;DHT22;20485;50.992;5.550;2024-01-27T15:06:37;5.30;99.90
33927;DHT22;20485;50.992;5.550;2024-01-27T15:09:13;5.20;99.90
33927;DHT22;20485;50.992;5.550;2024-01-27T15:11:41;5.20;99.90
33927;DHT22;20485;50.992;5.550;2024-01-27T15:14:10;5.20;99.90
33927;DHT22;20485;50.992;5.550;2024-01-27T15:16:37;5.20;99.90
33927;DHT22;20485;50.992;5.550;2024-01-27T15:19:04;5.20;99.90
33927;DHT22;20485;50.992;5.550;2024-01-27T15:21:42;5.00;99.90
33927;DHT22;20485;50.992;5.550;2024-01-27T15:24:16;5.10;99.90
33927;DHT22;20485;50.992;5.550;2024-01-27T15:26:46;5.10;99.90
33927;DHT22;20485;50.992;5.550;2024-01-27T15:29:25;5.10;99.90
33927;DHT22;20485;50.992;5.550;2024-01-27T15:32:01;5.00;99.90
33927;DHT22;20485;50.992;5.550;2024-01-27T15:34:30;5.00;99.90
33927;DHT22;20485;50.992;5.550;2024-01-27T15:37:02;4.90;99.90
33927;DHT22;20485;50.992;5.550;2024-01-27T15:39:36;4.80;99.90
33927;DHT22;20485;50.992;5.550;2024-01-27T15:42:02;4.80;99.90
33927;DHT22;20485;50.992;5.550;2024-01-27T15:44:33;5.00;99.90
33927;DHT22;20485;50.992;5.550;2024-01-27T15:47:02;4.60;99.90
33927;DHT22;20485;50.992;5.550;2024-01-27T15:49:33;4.50;99.90
33927;DHT22;20485;50.992;5.550;2024-01-27T15:52:12;4.50;99.90
33927;DHT22;20485;50.992;5.550;2024-01-27T15:54:47;4.30;99.90
33927;DHT22;20485;50.992;5.550;2024-01-27T15:57:22;4.30;99.90
33927;DHT22;20485;50.992;5.550;2024-01-27T15:59:59;4.20;99.90
33927;DHT22;20485;50.992;5.550;2024-01-27T16:02:30;4.20;99.90
33927;DHT22;20485;50.992;5.550;2024-01-27T16:04:58;4.10;99.90
33927;DHT22;20485;50.992;5.550;2024-01-27T16:07:28;4.00;99.90
33927;DHT22;20485;50.992;5.550;2024-01-27T16:10:00;2.10;99.90
33927;DHT22;20485;50.992;5.550;2024-01-27T16:12:38;3.90;99.90
33927;DHT22;20485;50.992;5.550;2024-01-27T16:17:58;3.80;99.90
33927;DHT22;20485;50.992;5.550;2024-01-27T16:20:46;3.70;99.90
33927;DHT22;20485;50.992;5.550;2024-01-27T16:23:24;3.70;99.90
33927;DHT22;20485;50.992;5.550;2024-01-27T16:26:05;4.00;99.90
33927;DHT22;20485;50.992;5.550;2024-01-27T16:28:46;3.50;99.90
33927;DHT22;20485;50.992;5.550;2024-01-27T16:31:26;3.40;99.90
33927;DHT22;20485;50.992;5.550;2024-01-27T16:33:58;3.30;99.90
33927;DHT22;20485;50.992;5.550;2024-01-27T16:36:38;3.20;99.90
33927;DHT22;20485;50.992;5.550;2024-01-27T16:39:05;3.20;99.90
33927;DHT22;20485;50.992;5.550;2024-01-27T16:41:32;1.70;99.90
33927;DHT22;20485;50.992;5.550;2024-01-27T16:44:01;3.00;99.90
33927;DHT22;20485;50.992;5.550;2024-01-27T16:46:27;3.00;99.90
33927;DHT22;20485;50.992;5.550;2024-01-27T16:49:01;2.90;99.90
33927;DHT22;20485;50.992;5.550;2024-01-27T16:51:27;2.90;99.90
33927;DHT22;20485;50.992;5.550;2024-01-27T16:54:01;2.80;99.90
33927;DHT22;20485;50.992;5.550;2024-01-27T16:56:37;2.80;99.90
33927;DHT22;20485;50.992;5.550;2024-01-27T16:59:04;2.70;99.90
33927;DHT22;20485;50.992;5.550;2024-01-27T17:01:40;2.70;99.90
33927;DHT22;20485;50.992;5.550;2024-01-27T17:04:13;2.70;99.90
33927;DHT22;20485;50.992;5.550;2024-01-27T17:06:46;0.10;99.90
33927;DHT22;20485;50.992;5.550;2024-01-27T17:09:26;2.50;99.90
33927;DHT22;20485;50.992;5.550;2024-01-27T17:12:05;2.90;99.90
33927;DHT22;20485;50.992;5.550;2024-01-27T17:14:41;2.50;99.90
33927;DHT22;20485;50.992;5.550;2024-01-27T17:17:11;2.30;99.90